createdAt,value
2019-03-15T00:00:26.307Z,20.77
2019-03-15T00:01:35.093Z,20.12
2019-03-15T00:02:40.410Z,20.60
2019-03-15T00:03:46.153Z,18.82
2019-03-15T00:04:50.707Z,18.32
2019-03-15T00:06:08.521Z,20.60
2019-03-15T00:07:10.843Z,19.70
2019-03-15T00:08:20.914Z,19.48
2019-03-15T00:09:25.049Z,19.67
2019-03-15T00:10:30.827Z,18.87
2019-03-15T00:11:36.174Z,17.98
2019-03-15T00:12:43.172Z,17.92
2019-03-15T00:13:48.792Z,18.75
2019-03-15T00:14:54.089Z,18.98
2019-03-15T00:15:59.799Z,19.00
2019-03-15T00:17:07.242Z,18.42
2019-03-15T00:18:14.516Z,18.02
2019-03-15T00:19:18.782Z,18.45
2019-03-15T00:20:24.415Z,17.98
2019-03-15T00:21:33.376Z,16.75
2019-03-15T00:22:42.582Z,17.75
2019-03-15T00:23:46.708Z,17.85
2019-03-15T00:24:50.774Z,16.80
2019-03-15T00:25:58.463Z,17.92
2019-03-15T00:27:04.200Z,16.57
2019-03-15T00:28:17.905Z,16.97
2019-03-15T00:29:23.979Z,17.05
2019-03-15T00:30:28.327Z,16.97
2019-03-15T00:31:32.420Z,15.98
2019-03-15T00:32:39.141Z,16.77
2019-03-15T00:33:43.303Z,16.45
2019-03-15T00:34:51.285Z,15.65
2019-03-15T00:35:55.469Z,16.12
2019-03-15T00:37:01.250Z,16.85
2019-03-15T00:38:06.101Z,16.30
2019-03-15T00:39:10.204Z,16.60
2019-03-15T00:40:24.085Z,15.78
2019-03-15T00:41:31.616Z,16.60
2019-03-15T00:42:54.736Z,16.35
2019-03-15T00:44:09.400Z,14.85
2019-03-15T00:45:15.208Z,16.35
2019-03-15T00:46:24.964Z,17.02
2019-03-15T00:47:29.776Z,16.50
2019-03-15T00:48:37.143Z,14.98
2019-03-15T00:49:41.374Z,15.60
2019-03-15T00:50:45.532Z,16.12
2019-03-15T00:51:50.684Z,15.38
2019-03-15T00:52:54.839Z,15.08
2019-03-15T00:54:04.061Z,16.65
2019-03-15T00:55:08.498Z,15.48
2019-03-15T00:56:19.554Z,17.37
2019-03-15T00:58:28.815Z,15.10
2019-03-15T00:59:33.961Z,17.00
2019-03-15T01:00:41.848Z,17.87
2019-03-15T01:01:49.343Z,17.48
2019-03-15T01:02:56.512Z,17.00
2019-03-15T01:04:03.734Z,16.90
2019-03-15T01:05:12.411Z,16.75
2019-03-15T01:06:17.553Z,18.60
2019-03-15T01:07:22.708Z,19.52
2019-03-15T01:08:27.566Z,18.37
2019-03-15T01:09:35.019Z,18.17
2019-03-15T01:10:41.762Z,18.52
2019-03-15T01:11:49.055Z,18.35
2019-03-15T01:12:53.207Z,18.70
2019-03-15T01:13:57.489Z,18.05
2019-03-15T01:15:04.846Z,17.20
2019-03-15T01:16:09.170Z,18.90
2019-03-15T01:17:13.256Z,19.27
2019-03-15T01:18:18.429Z,19.92
2019-03-15T01:19:22.799Z,18.90
2019-03-15T01:20:27.636Z,18.00
2019-03-15T01:21:31.793Z,18.98
2019-03-15T01:22:36.000Z,19.70
2019-03-15T01:23:40.182Z,19.07
2019-03-15T01:24:52.567Z,18.52
2019-03-15T01:25:58.317Z,20.40
2019-03-15T01:27:02.486Z,18.98
2019-03-15T01:28:06.555Z,19.98
2019-03-15T01:29:10.742Z,20.68
2019-03-15T01:30:15.336Z,20.52
2019-03-15T01:31:19.552Z,19.95
2019-03-15T01:32:23.690Z,19.60
2019-03-15T01:33:28.468Z,19.92
2019-03-15T01:34:32.574Z,20.85
2019-03-15T01:35:39.787Z,21.82
2019-03-15T01:36:43.863Z,21.10
2019-03-15T01:37:49.313Z,20.50
2019-03-15T01:38:53.395Z,21.55
2019-03-15T01:39:58.666Z,19.92
2019-03-15T01:41:02.763Z,20.72
2019-03-15T01:42:06.864Z,21.60
2019-03-15T01:43:10.965Z,21.35
2019-03-15T01:44:15.219Z,21.73
2019-03-15T01:45:20.494Z,21.10
2019-03-15T01:46:24.564Z,20.25
2019-03-15T01:47:28.771Z,22.82
2019-03-15T01:48:33.578Z,21.40
2019-03-15T01:49:39.263Z,19.85
2019-03-15T01:50:43.465Z,21.27
2019-03-15T01:51:49.244Z,22.05
2019-03-15T01:52:54.039Z,22.13
2019-03-15T01:53:58.619Z,21.70
2019-03-15T01:55:02.787Z,22.62
2019-03-15T01:56:06.910Z,22.20
2019-03-15T01:57:10.991Z,21.02
2019-03-15T01:58:15.120Z,22.07
2019-03-15T01:59:19.219Z,21.77
2019-03-15T02:00:23.360Z,22.82
2019-03-15T02:01:27.580Z,21.90
2019-03-15T02:02:31.834Z,21.77
2019-03-15T02:03:37.545Z,20.57
2019-03-15T02:04:41.628Z,22.37
2019-03-15T02:05:46.878Z,22.52
2019-03-15T02:06:54.879Z,22.42
2019-03-15T02:07:59.079Z,21.35
2019-03-15T02:09:04.338Z,22.27
2019-03-15T02:10:09.499Z,22.05
2019-03-15T02:11:13.548Z,22.62
2019-03-15T02:12:17.795Z,21.60
2019-03-15T02:13:21.870Z,21.30
2019-03-15T02:14:26.019Z,20.85
2019-03-15T02:15:32.932Z,20.90
2019-03-15T02:16:37.084Z,20.32
2019-03-15T02:17:41.207Z,22.27
2019-03-15T02:18:45.269Z,20.92
2019-03-15T02:19:51.288Z,20.95
2019-03-15T02:20:55.926Z,21.48
2019-03-15T02:22:01.638Z,21.80
2019-03-15T02:23:05.938Z,20.27
2019-03-15T02:24:10.282Z,19.75
2019-03-15T02:25:14.326Z,21.35
2019-03-15T02:26:19.458Z,19.73
2019-03-15T02:27:24.143Z,20.55
2019-03-15T02:28:30.940Z,19.95
2019-03-15T02:29:38.041Z,19.65
2019-03-15T02:30:42.140Z,19.12
2019-03-15T02:31:47.779Z,20.20
2019-03-15T02:32:51.934Z,20.62
2019-03-15T02:33:57.799Z,20.45
2019-03-15T02:35:02.584Z,20.35
2019-03-15T02:36:08.326Z,19.80
2019-03-15T02:37:12.651Z,20.15
2019-03-15T02:38:16.737Z,20.75
2019-03-15T02:39:20.915Z,20.75
2019-03-15T02:40:26.678Z,19.67
2019-03-15T02:41:32.046Z,19.92
2019-03-15T02:42:36.486Z,21.02
2019-03-15T02:43:40.650Z,19.60
2019-03-15T02:44:44.899Z,19.45
2019-03-15T02:45:50.679Z,19.17
2019-03-15T02:46:55.284Z,19.02
2019-03-15T02:47:59.650Z,19.75
2019-03-15T02:49:04.597Z,18.73
2019-03-15T02:50:09.318Z,19.15
2019-03-15T02:51:13.486Z,19.55
2019-03-15T02:52:18.276Z,19.70
2019-03-15T02:53:22.473Z,18.50
2019-03-15T02:54:27.481Z,18.65
2019-03-15T02:55:32.668Z,19.70
2019-03-15T02:56:37.822Z,18.40
2019-03-15T02:57:41.915Z,18.35
2019-03-15T02:58:46.251Z,18.77
2019-03-15T02:59:50.358Z,19.35
2019-03-15T03:00:56.886Z,19.10
2019-03-15T03:02:01.604Z,18.15
2019-03-15T03:03:05.893Z,17.00
2019-03-15T03:04:10.699Z,17.92
2019-03-15T03:05:14.857Z,17.42
2019-03-15T03:06:19.128Z,17.90
2019-03-15T03:07:24.887Z,17.52
2019-03-15T03:08:29.098Z,17.12
2019-03-15T03:09:34.158Z,16.15
2019-03-15T03:10:40.036Z,17.75
2019-03-15T03:11:44.281Z,17.00
2019-03-15T03:12:48.491Z,17.17
2019-03-15T03:13:54.132Z,16.93
2019-03-15T03:14:58.461Z,17.02
2019-03-15T03:16:02.961Z,16.23
2019-03-15T03:17:07.198Z,16.05
2019-03-15T03:18:11.960Z,16.42
2019-03-15T03:19:16.158Z,15.98
2019-03-15T03:20:23.564Z,15.70
2019-03-15T03:21:30.371Z,16.48
2019-03-15T03:22:36.105Z,15.83
2019-03-15T03:23:52.034Z,14.43
2019-03-15T03:25:01.733Z,13.75
2019-03-15T03:26:07.127Z,15.58
2019-03-15T03:27:18.542Z,13.78
2019-03-15T03:28:48.548Z,13.38
2019-03-15T03:29:32.941Z,14.40
2019-03-15T03:30:37.754Z,14.85
2019-03-15T03:31:44.239Z,14.93
2019-03-15T03:32:50.488Z,14.85
2019-03-15T03:33:57.364Z,13.53
2019-03-15T03:35:01.572Z,13.98
2019-03-15T03:36:05.714Z,15.08
2019-03-15T03:37:09.989Z,12.90
2019-03-15T03:38:16.509Z,14.35
2019-03-15T03:39:20.824Z,13.83
2019-03-15T03:40:29.078Z,14.00
2019-03-15T03:41:34.075Z,13.32
2019-03-15T03:42:38.170Z,13.38
2019-03-15T03:43:42.356Z,13.03
2019-03-15T03:44:46.560Z,12.80
2019-03-15T03:45:50.658Z,12.75
2019-03-15T03:46:54.864Z,13.18
2019-03-15T03:47:59.072Z,12.78
2019-03-15T03:49:03.162Z,14.15
2019-03-15T03:50:09.538Z,14.60
2019-03-15T03:51:13.692Z,13.60
2019-03-15T03:52:17.932Z,13.25
2019-03-15T03:53:22.072Z,12.55
2019-03-15T03:54:26.526Z,12.55
2019-03-15T03:55:30.694Z,12.37
2019-03-15T03:56:34.838Z,13.20
2019-03-15T03:57:39.125Z,13.38
2019-03-15T03:58:43.263Z,13.58
2019-03-15T03:59:49.012Z,12.30
2019-03-15T04:00:54.310Z,13.38
2019-03-15T04:01:58.514Z,13.05
2019-03-15T04:03:02.763Z,12.28
2019-03-15T04:04:06.924Z,12.82
2019-03-15T04:05:11.211Z,13.22
2019-03-15T04:06:15.374Z,12.07
2019-03-15T04:07:21.087Z,13.10
2019-03-15T04:08:28.294Z,13.62
2019-03-15T04:09:32.310Z,12.13
2019-03-15T04:10:38.814Z,12.35
2019-03-15T04:11:54.640Z,12.00
2019-03-15T04:12:48.762Z,12.90
2019-03-15T04:13:52.978Z,13.32
2019-03-15T04:15:01.014Z,11.97
2019-03-15T04:16:05.272Z,12.80
2019-03-15T04:17:09.683Z,12.03
2019-03-15T04:18:13.843Z,13.05
2019-03-15T04:19:18.084Z,12.93
2019-03-15T04:20:22.188Z,12.75
2019-03-15T04:21:26.436Z,12.28
2019-03-15T04:22:32.768Z,12.80
2019-03-15T04:23:38.393Z,12.85
2019-03-15T04:24:44.375Z,12.23
2019-03-15T04:25:48.747Z,12.63
2019-03-15T04:26:53.005Z,12.47
2019-03-15T04:27:57.348Z,12.25
2019-03-15T04:29:01.451Z,13.08
2019-03-15T04:30:09.241Z,11.93
2019-03-15T04:31:13.467Z,12.33
2019-03-15T04:32:17.596Z,11.95
2019-03-15T04:33:21.660Z,11.97
2019-03-15T04:34:28.392Z,12.40
2019-03-15T04:35:31.619Z,12.30
2019-03-15T04:36:35.714Z,12.33
2019-03-15T04:37:39.876Z,12.05
2019-03-15T04:38:45.945Z,12.50
2019-03-15T04:39:49.780Z,11.88
2019-03-15T04:40:54.006Z,11.90
2019-03-15T04:41:58.162Z,13.00
2019-03-15T04:43:02.283Z,11.85
2019-03-15T04:44:07.519Z,11.70
2019-03-15T04:45:15.301Z,12.43
2019-03-15T04:46:18.660Z,12.68
2019-03-15T04:47:22.827Z,12.30
2019-03-15T04:48:27.078Z,12.07
2019-03-15T04:49:37.544Z,13.25
2019-03-15T04:50:59.768Z,12.63
2019-03-15T04:52:06.836Z,12.15
2019-03-15T04:53:16.078Z,11.75
2019-03-15T04:54:22.027Z,12.25
2019-03-15T04:55:26.235Z,11.90
2019-03-15T04:56:32.054Z,12.80
2019-03-15T04:57:37.600Z,11.78
2019-03-15T04:58:41.659Z,11.30
2019-03-15T04:59:51.304Z,12.25
2019-03-15T05:00:58.363Z,11.35
2019-03-15T05:02:03.956Z,13.03
2019-03-15T05:03:08.054Z,12.37
2019-03-15T05:04:13.442Z,11.83
2019-03-15T05:05:24.938Z,12.33
2019-03-15T05:06:29.758Z,11.40
2019-03-15T05:07:33.868Z,12.78
2019-03-15T05:08:39.584Z,12.73
2019-03-15T05:09:45.195Z,12.80
2019-03-15T05:10:50.389Z,12.30
2019-03-15T05:11:55.463Z,12.23
2019-03-15T05:13:02.294Z,12.23
2019-03-15T05:14:09.470Z,12.43
2019-03-15T05:15:17.824Z,12.70
2019-03-15T05:16:24.052Z,12.78
2019-03-15T05:17:30.773Z,13.22
2019-03-15T05:18:36.690Z,12.45
2019-03-15T05:19:42.510Z,12.75
2019-03-15T05:20:48.105Z,13.28
2019-03-15T05:21:52.273Z,13.10
2019-03-15T05:22:56.486Z,12.55
2019-03-15T05:24:05.047Z,12.98
2019-03-15T05:25:09.547Z,12.20
2019-03-15T05:26:15.472Z,12.68
2019-03-15T05:27:19.695Z,12.03
2019-03-15T05:28:27.037Z,13.13
2019-03-15T05:29:39.112Z,12.35
2019-03-15T05:30:46.373Z,12.35
2019-03-15T05:31:52.699Z,12.82
2019-03-15T05:32:58.452Z,13.08
2019-03-15T05:34:03.038Z,11.25
2019-03-15T05:35:08.823Z,13.68
2019-03-15T05:36:13.282Z,12.40
2019-03-15T05:37:20.534Z,13.10
2019-03-15T05:38:24.714Z,13.62
2019-03-15T05:39:29.203Z,13.28
2019-03-15T05:40:33.764Z,12.80
2019-03-15T05:41:37.922Z,13.35
2019-03-15T05:42:44.100Z,12.03
2019-03-15T05:43:48.312Z,12.65
2019-03-15T05:44:53.407Z,12.43
2019-03-15T05:45:59.918Z,12.88
2019-03-15T05:47:04.184Z,12.33
2019-03-15T05:48:08.338Z,12.33
2019-03-15T05:49:14.018Z,12.07
2019-03-15T05:50:19.362Z,13.55
2019-03-15T05:51:25.994Z,11.75
2019-03-15T05:52:30.226Z,12.15
2019-03-15T05:53:34.758Z,13.10
2019-03-15T05:54:40.120Z,11.75
2019-03-15T05:55:44.392Z,12.45
2019-03-15T05:56:50.315Z,12.63
2019-03-15T05:57:56.936Z,13.15
2019-03-15T05:59:02.009Z,13.20
2019-03-15T06:00:09.217Z,12.10
2019-03-15T06:01:15.979Z,12.07
2019-03-15T06:02:24.870Z,11.57
2019-03-15T06:03:32.267Z,13.03
2019-03-15T06:04:36.507Z,11.90
2019-03-15T06:05:45.984Z,12.25
2019-03-15T06:06:53.643Z,12.90
2019-03-15T06:07:58.641Z,14.03
2019-03-15T06:09:04.560Z,12.78
2019-03-15T06:10:12.598Z,11.53
2019-03-15T06:11:20.100Z,11.93
2019-03-15T06:12:23.479Z,11.15
2019-03-15T06:13:29.058Z,11.40
2019-03-15T06:14:33.185Z,11.25
2019-03-15T06:15:37.366Z,11.75
2019-03-15T06:16:43.070Z,11.85
2019-03-15T06:17:47.169Z,12.00
2019-03-15T06:18:56.621Z,11.70
2019-03-15T06:20:01.280Z,11.75
2019-03-15T06:21:05.593Z,12.45
2019-03-15T06:22:13.356Z,11.20
2019-03-15T06:23:18.794Z,11.90
2019-03-15T06:24:26.168Z,10.60
2019-03-15T06:25:30.357Z,12.28
2019-03-15T06:26:36.136Z,11.88
2019-03-15T06:27:40.328Z,11.90
2019-03-15T06:28:44.576Z,11.65
2019-03-15T06:29:53.670Z,11.88
2019-03-15T06:30:57.851Z,11.10
2019-03-15T06:32:03.415Z,11.35
2019-03-15T06:33:10.626Z,12.37
2019-03-15T06:34:29.732Z,11.93
2019-03-15T06:35:34.154Z,13.08
2019-03-15T06:36:39.627Z,12.68
2019-03-15T06:37:46.164Z,12.82
2019-03-15T06:39:02.710Z,12.20
2019-03-15T06:40:09.282Z,12.00
2019-03-15T06:41:14.558Z,11.55
2019-03-15T06:42:20.107Z,11.68
2019-03-15T06:43:24.411Z,11.22
2019-03-15T06:44:28.545Z,10.98
2019-03-15T06:45:32.829Z,11.75
2019-03-15T06:46:36.954Z,12.45
2019-03-15T06:47:41.200Z,12.23
2019-03-15T06:48:48.046Z,12.15
2019-03-15T06:49:54.608Z,12.63
2019-03-15T06:51:02.156Z,12.93
2019-03-15T06:52:07.934Z,12.63
2019-03-15T06:53:12.368Z,12.25
2019-03-15T06:54:16.635Z,12.82
2019-03-15T06:55:20.724Z,12.78
2019-03-15T06:56:24.918Z,13.13
2019-03-15T06:57:30.528Z,12.10
2019-03-15T06:58:35.074Z,11.85
2019-03-15T06:59:39.480Z,12.47
2019-03-15T07:00:44.803Z,12.88
2019-03-15T07:01:50.778Z,11.97
2019-03-15T07:02:55.148Z,13.08
2019-03-15T07:04:01.206Z,14.23
2019-03-15T07:05:11.839Z,12.63
2019-03-15T07:06:15.168Z,24.00
2019-03-15T07:07:21.402Z,14.55
2019-03-15T07:08:28.022Z,13.53
2019-03-15T07:09:33.429Z,13.35
2019-03-15T07:10:39.857Z,15.35
2019-03-15T07:11:45.706Z,14.47
2019-03-15T07:12:53.298Z,13.38
2019-03-15T07:13:59.733Z,14.45
2019-03-15T07:15:17.556Z,12.55
2019-03-15T07:16:21.346Z,12.60
2019-03-15T07:17:30.168Z,12.75
2019-03-15T07:18:35.582Z,12.58
2019-03-15T07:19:43.554Z,12.85
2019-03-15T07:20:50.392Z,13.03
2019-03-15T07:21:56.274Z,12.88
2019-03-15T07:23:03.300Z,11.90
2019-03-15T07:24:24.127Z,11.63
2019-03-15T07:25:17.191Z,13.10
2019-03-15T07:26:21.511Z,12.20
2019-03-15T07:27:27.227Z,12.10
2019-03-15T07:28:38.233Z,11.60
2019-03-15T07:29:55.814Z,11.95
2019-03-15T07:30:59.429Z,11.12
2019-03-15T07:32:11.138Z,11.43
2019-03-15T07:33:19.217Z,11.25
2019-03-15T07:34:26.742Z,11.20
2019-03-15T07:35:32.048Z,10.70
2019-03-15T07:36:37.966Z,10.55
2019-03-15T07:37:45.125Z,10.32
2019-03-15T07:38:49.444Z,10.00
2019-03-15T07:39:55.850Z,11.10
2019-03-15T07:41:00.009Z,10.78
2019-03-15T07:42:06.937Z,10.03
2019-03-15T07:43:12.290Z,9.05
2019-03-15T07:44:16.514Z,9.50
2019-03-15T07:45:20.804Z,10.80
2019-03-15T07:46:26.468Z,9.55
2019-03-15T07:47:31.998Z,9.55
2019-03-15T07:48:36.409Z,9.75
2019-03-15T07:49:42.460Z,9.48
2019-03-15T07:50:51.065Z,9.13
2019-03-15T07:51:55.252Z,10.25
2019-03-15T07:53:00.544Z,9.28
2019-03-15T07:54:06.313Z,9.53
2019-03-15T07:55:11.210Z,9.13
2019-03-15T07:56:16.192Z,9.45
2019-03-15T07:57:20.478Z,9.98
2019-03-15T07:58:24.702Z,9.40
2019-03-15T07:59:28.896Z,10.15
2019-03-15T08:00:34.841Z,10.48
2019-03-15T08:01:40.603Z,9.40
2019-03-15T08:02:44.887Z,9.90
2019-03-15T08:03:50.526Z,10.28
2019-03-15T08:04:57.011Z,10.32
2019-03-15T08:06:01.157Z,9.23
2019-03-15T08:07:09.621Z,9.88
2019-03-15T08:08:13.911Z,10.65
2019-03-15T08:09:18.928Z,9.50
2019-03-15T08:10:24.871Z,10.00
2019-03-15T08:11:29.282Z,8.88
2019-03-15T08:12:38.940Z,9.80
2019-03-15T08:13:43.257Z,11.05
2019-03-15T08:14:48.006Z,11.03
2019-03-15T08:15:52.137Z,9.95
2019-03-15T08:16:56.833Z,10.08
2019-03-15T08:18:05.369Z,10.53
2019-03-15T08:19:09.491Z,10.82
2019-03-15T08:20:14.899Z,10.78
2019-03-15T08:21:23.388Z,10.35
2019-03-15T08:22:30.581Z,12.20
2019-03-15T08:23:36.652Z,12.23
2019-03-15T08:24:51.410Z,11.57
2019-03-15T08:25:53.430Z,12.90
2019-03-15T08:27:00.258Z,12.03
2019-03-15T08:28:04.527Z,14.58
2019-03-15T08:29:12.124Z,16.32
2019-03-15T08:30:18.719Z,14.95
2019-03-15T08:31:30.096Z,13.68
2019-03-15T08:32:34.417Z,13.72
2019-03-15T08:33:38.547Z,13.38
2019-03-15T08:34:51.621Z,13.38
2019-03-15T08:35:51.565Z,12.90
2019-03-15T08:36:56.615Z,12.65
2019-03-15T08:38:00.755Z,12.80
2019-03-15T08:39:08.497Z,14.93
2019-03-15T08:40:16.268Z,17.52
2019-03-15T08:41:21.067Z,10.45
2019-03-15T08:42:25.370Z,9.80
2019-03-15T08:43:29.499Z,9.15
2019-03-15T08:44:33.701Z,9.25
2019-03-15T08:45:39.040Z,10.63
2019-03-15T08:46:43.260Z,9.55
2019-03-15T08:47:50.275Z,8.70
2019-03-15T08:48:55.911Z,10.32
2019-03-15T08:50:00.373Z,9.68
2019-03-15T08:51:10.309Z,9.35
2019-03-15T08:52:12.675Z,8.00
2019-03-15T08:53:17.675Z,8.25
2019-03-15T08:54:21.905Z,10.93
2019-03-15T08:55:30.617Z,8.63
2019-03-15T08:56:36.384Z,8.18
2019-03-15T08:57:40.521Z,8.98
2019-03-15T08:58:44.651Z,8.43
2019-03-15T08:59:56.802Z,9.68
2019-03-15T09:00:54.509Z,8.73
2019-03-15T09:01:58.557Z,8.83
2019-03-15T09:03:03.050Z,7.20
2019-03-15T09:04:07.192Z,7.10
2019-03-15T09:05:12.383Z,8.65
2019-03-15T09:06:16.502Z,7.62
2019-03-15T09:07:20.628Z,7.83
2019-03-15T09:08:24.699Z,7.62
2019-03-15T09:09:28.762Z,8.63
2019-03-15T09:10:32.892Z,7.47
2019-03-15T09:11:37.025Z,7.67
2019-03-15T09:12:41.153Z,8.30
2019-03-15T09:13:45.223Z,7.97
2019-03-15T09:14:49.309Z,7.72
2019-03-15T09:15:56.167Z,7.97
2019-03-15T09:17:04.969Z,7.92
2019-03-15T09:18:12.853Z,8.78
2019-03-15T09:19:17.160Z,8.73
2019-03-15T09:20:21.265Z,8.48
2019-03-15T09:21:25.434Z,9.13
2019-03-15T09:22:30.287Z,10.03
2019-03-15T09:23:35.950Z,9.50
2019-03-15T09:24:40.255Z,8.70
2019-03-15T09:25:44.312Z,8.53
2019-03-15T09:26:48.451Z,9.30
2019-03-15T09:27:52.615Z,9.28
2019-03-15T09:28:56.723Z,12.37
2019-03-15T09:30:00.771Z,11.33
2019-03-15T09:31:07.415Z,10.23
2019-03-15T09:32:10.594Z,10.68
2019-03-15T09:33:14.696Z,13.10
2019-03-15T09:34:18.761Z,9.28
2019-03-15T09:35:22.817Z,8.73
2019-03-15T09:36:29.969Z,10.30
2019-03-15T09:37:35.505Z,8.78
2019-03-15T09:38:39.594Z,9.40
2019-03-15T09:39:43.680Z,8.08
2019-03-15T09:40:47.895Z,9.55
2019-03-15T09:41:51.969Z,11.88
2019-03-15T09:42:59.647Z,9.75
2019-03-15T09:44:01.967Z,8.50
2019-03-15T09:45:08.959Z,8.68
2019-03-15T09:46:13.096Z,10.85
2019-03-15T09:47:17.360Z,10.25
2019-03-15T09:48:21.461Z,8.00
2019-03-15T09:49:25.629Z,7.95
2019-03-15T09:50:40.053Z,8.15
2019-03-15T09:51:35.517Z,8.15
2019-03-15T09:52:42.439Z,8.53
2019-03-15T09:53:49.099Z,7.53
2019-03-15T09:54:53.323Z,7.78
2019-03-15T09:55:57.471Z,7.95
2019-03-15T09:57:01.603Z,8.30
2019-03-15T09:58:07.658Z,7.65
2019-03-15T09:59:11.785Z,7.08
2019-03-15T10:00:17.945Z,7.35
2019-03-15T10:01:34.824Z,6.85
2019-03-15T10:02:30.965Z,6.08
2019-03-15T10:03:34.977Z,6.03
2019-03-15T10:04:39.156Z,6.50
2019-03-15T10:05:43.351Z,5.50
2019-03-15T10:06:47.466Z,6.03
2019-03-15T10:07:51.614Z,5.00
2019-03-15T10:08:55.665Z,5.87
2019-03-15T10:10:12.507Z,5.53
2019-03-15T10:11:05.609Z,5.17
2019-03-15T10:12:11.245Z,5.40
2019-03-15T10:13:15.393Z,5.87
2019-03-15T10:14:19.434Z,5.72
2019-03-15T10:15:26.148Z,5.33
2019-03-15T10:16:29.284Z,5.83
2019-03-15T10:17:33.403Z,5.40
2019-03-15T10:18:37.558Z,5.55
2019-03-15T10:19:41.620Z,5.97
2019-03-15T10:20:45.748Z,5.67
2019-03-15T10:21:51.296Z,5.87
2019-03-15T10:23:05.313Z,6.00
2019-03-15T10:24:08.126Z,6.20
2019-03-15T10:25:10.073Z,6.12
2019-03-15T10:26:15.125Z,6.00
2019-03-15T10:27:19.315Z,6.00
2019-03-15T10:28:29.418Z,6.55
2019-03-15T10:29:36.691Z,6.67
2019-03-15T10:30:41.204Z,6.65
2019-03-15T10:31:45.421Z,6.72
2019-03-15T10:32:49.719Z,6.67
2019-03-15T10:33:53.844Z,7.62
2019-03-15T10:34:58.032Z,7.00
2019-03-15T10:36:02.106Z,7.25
2019-03-15T10:37:06.486Z,8.15
2019-03-15T10:38:16.514Z,8.93
2019-03-15T10:39:19.295Z,8.98
2019-03-15T10:40:24.530Z,8.98
2019-03-15T10:41:28.603Z,9.38
2019-03-15T10:42:35.550Z,9.30
2019-03-15T10:43:41.268Z,10.25
2019-03-15T10:44:45.344Z,10.78
2019-03-15T10:45:49.490Z,10.95
2019-03-15T10:46:53.516Z,10.15
2019-03-15T10:47:57.590Z,9.00
2019-03-15T10:49:01.656Z,10.88
2019-03-15T10:50:08.829Z,11.43
2019-03-15T10:51:13.015Z,11.38
2019-03-15T10:52:17.111Z,12.45
2019-03-15T10:53:21.262Z,11.00
2019-03-15T10:54:28.545Z,11.08
2019-03-15T10:55:32.610Z,11.18
2019-03-15T10:56:36.809Z,11.93
2019-03-15T10:57:40.899Z,9.55
2019-03-15T10:58:46.593Z,9.73
2019-03-15T10:59:50.749Z,10.48
2019-03-15T11:00:55.953Z,10.38
2019-03-15T11:02:00.267Z,12.47
2019-03-15T11:03:04.570Z,10.58
2019-03-15T11:04:08.645Z,9.90
2019-03-15T11:05:16.200Z,10.85
2019-03-15T11:06:20.369Z,11.78
2019-03-15T11:07:24.467Z,11.18
2019-03-15T11:08:28.725Z,10.48
2019-03-15T11:09:35.903Z,10.28
2019-03-15T11:10:39.983Z,9.90
2019-03-15T11:11:45.611Z,12.23
2019-03-15T11:12:50.188Z,8.38
2019-03-15T11:13:56.182Z,7.50
2019-03-15T11:15:00.884Z,6.10
2019-03-15T11:16:04.997Z,5.95
2019-03-15T11:17:09.058Z,5.90
2019-03-15T11:18:13.133Z,6.03
2019-03-15T11:19:17.204Z,6.08
2019-03-15T11:20:21.329Z,5.30
2019-03-15T11:21:25.514Z,5.40
2019-03-15T11:22:29.568Z,6.35
2019-03-15T11:23:33.714Z,5.25
2019-03-15T11:24:39.433Z,5.33
2019-03-15T11:25:43.486Z,5.28
2019-03-15T11:26:47.763Z,6.30
2019-03-15T11:27:53.403Z,5.42
2019-03-15T11:28:57.498Z,6.05
2019-03-15T11:30:01.595Z,5.90
2019-03-15T11:31:05.637Z,6.40
2019-03-15T11:32:11.161Z,5.95
2019-03-15T11:33:15.314Z,5.60
2019-03-15T11:34:19.364Z,5.92
2019-03-15T11:35:28.283Z,6.00
2019-03-15T11:36:32.374Z,5.33
2019-03-15T11:37:37.972Z,5.85
2019-03-15T11:38:42.114Z,5.95
2019-03-15T11:39:47.894Z,5.85
2019-03-15T11:40:52.018Z,5.92
2019-03-15T11:41:56.145Z,6.03
2019-03-15T11:43:00.222Z,6.03
2019-03-15T11:44:04.405Z,5.72
2019-03-15T11:45:10.538Z,5.90
2019-03-15T11:46:16.658Z,4.80
2019-03-15T11:47:20.739Z,5.05
2019-03-15T11:48:27.537Z,5.62
2019-03-15T11:49:31.601Z,5.20
2019-03-15T11:50:35.829Z,5.45
2019-03-15T11:51:42.814Z,5.67
2019-03-15T11:52:48.366Z,4.85
2019-03-15T11:53:52.687Z,4.90
2019-03-15T11:54:56.971Z,5.12
2019-03-15T11:56:02.186Z,4.78
2019-03-15T11:57:06.561Z,5.03
2019-03-15T11:58:11.859Z,4.50
2019-03-15T11:59:18.505Z,4.67
2019-03-15T12:00:24.081Z,4.50
2019-03-15T12:01:28.209Z,3.25
2019-03-15T12:02:32.315Z,3.00
2019-03-15T12:03:36.376Z,3.30
2019-03-15T12:04:40.451Z,4.05
2019-03-15T12:05:44.593Z,4.10
2019-03-15T12:06:48.671Z,5.55
2019-03-15T12:07:52.726Z,6.62
2019-03-15T12:08:56.869Z,3.67
2019-03-15T12:10:00.976Z,3.50
2019-03-15T12:11:07.075Z,4.35
2019-03-15T12:12:11.741Z,3.70
2019-03-15T12:13:17.438Z,3.05
2019-03-15T12:14:23.327Z,3.08
2019-03-15T12:15:29.793Z,3.52
2019-03-15T12:16:33.905Z,3.47
2019-03-15T12:17:39.506Z,4.75
2019-03-15T12:18:45.117Z,5.00
2019-03-15T12:19:50.485Z,3.15
2019-03-15T12:20:54.575Z,5.17
2019-03-15T12:22:06.468Z,3.98
2019-03-15T12:23:09.067Z,3.67
2019-03-15T12:24:13.650Z,3.58
2019-03-15T12:25:17.838Z,4.60
2019-03-15T12:26:21.965Z,3.45
2019-03-15T12:27:26.151Z,3.83
2019-03-15T12:28:32.759Z,4.00
2019-03-15T12:29:37.394Z,4.10
2019-03-15T12:30:43.335Z,5.05
2019-03-15T12:31:48.872Z,4.83
2019-03-15T12:32:54.403Z,4.22
2019-03-15T12:33:58.695Z,4.55
2019-03-15T12:35:02.768Z,3.42
2019-03-15T12:36:10.386Z,3.45
2019-03-15T12:37:14.445Z,3.95
2019-03-15T12:38:18.565Z,3.80
2019-03-15T12:39:22.779Z,4.10
2019-03-15T12:40:29.285Z,3.80
2019-03-15T12:41:34.423Z,3.67
2019-03-15T12:42:40.989Z,4.22
2019-03-15T12:43:46.678Z,4.37
2019-03-15T12:44:52.489Z,3.98
2019-03-15T12:45:57.429Z,3.65
2019-03-15T12:47:01.583Z,3.98
2019-03-15T12:48:05.747Z,3.80
2019-03-15T12:49:09.759Z,3.95
2019-03-15T12:50:19.039Z,3.90
2019-03-15T12:51:31.999Z,5.33
2019-03-15T12:52:28.870Z,5.20
2019-03-15T12:53:33.011Z,4.60
2019-03-15T12:54:40.928Z,5.12
2019-03-15T12:55:45.092Z,4.12
2019-03-15T12:56:53.932Z,4.53
2019-03-15T12:57:55.059Z,4.22
2019-03-15T12:58:59.137Z,4.42
2019-03-15T13:00:03.877Z,4.03
2019-03-15T13:01:08.005Z,5.15
2019-03-15T13:02:12.065Z,4.70
2019-03-15T13:03:16.128Z,4.58
2019-03-15T13:04:20.250Z,5.05
2019-03-15T13:05:24.405Z,4.90
2019-03-15T13:06:28.499Z,4.45
2019-03-15T13:07:34.229Z,5.08
2019-03-15T13:08:38.322Z,4.85
2019-03-15T13:09:45.365Z,4.40
2019-03-15T13:10:49.655Z,4.10
2019-03-15T13:11:55.443Z,3.90
2019-03-15T13:12:59.765Z,3.67
2019-03-15T13:14:05.188Z,4.25
2019-03-15T13:15:13.658Z,3.25
2019-03-15T13:16:17.735Z,2.65
2019-03-15T13:17:21.896Z,2.40
2019-03-15T13:18:30.205Z,2.00
2019-03-15T13:19:34.549Z,2.52
2019-03-15T13:20:38.695Z,3.10
2019-03-15T13:21:43.064Z,2.40
2019-03-15T13:22:47.245Z,2.58
2019-03-15T13:23:52.965Z,2.67
2019-03-15T13:24:57.144Z,3.20
2019-03-15T13:26:02.784Z,2.70
2019-03-15T13:27:07.980Z,2.58
2019-03-15T13:28:12.378Z,2.80
2019-03-15T13:29:16.424Z,2.80
2019-03-15T13:30:20.563Z,3.00
2019-03-15T13:31:26.164Z,3.30
2019-03-15T13:32:33.113Z,4.97
2019-03-15T13:33:37.199Z,3.50
2019-03-15T13:34:41.342Z,3.35
2019-03-15T13:35:45.766Z,3.30
2019-03-15T13:36:49.835Z,2.90
2019-03-15T13:37:54.113Z,3.00
2019-03-15T13:38:58.264Z,2.62
2019-03-15T13:40:06.709Z,3.83
2019-03-15T13:41:10.936Z,3.40
2019-03-15T13:42:15.847Z,3.60
2019-03-15T13:43:19.969Z,3.25
2019-03-15T13:44:26.315Z,2.67
2019-03-15T13:45:33.368Z,3.12
2019-03-15T13:46:41.656Z,3.30
2019-03-15T13:47:51.441Z,3.70
2019-03-15T13:49:02.472Z,3.90
2019-03-15T13:51:28.327Z,3.80
2019-03-15T13:52:37.227Z,4.08
2019-03-15T13:53:51.448Z,3.92
2019-03-15T13:54:55.870Z,4.65
2019-03-15T13:56:02.932Z,4.30
2019-03-15T13:57:20.162Z,3.92
2019-03-15T13:58:15.875Z,4.15
2019-03-15T13:59:21.623Z,3.87
2019-03-15T14:00:30.390Z,2.98
2019-03-15T14:01:41.185Z,2.17
2019-03-15T14:02:41.510Z,1.95
2019-03-15T14:03:48.714Z,1.62
2019-03-15T14:05:02.902Z,1.70
2019-03-15T14:06:08.888Z,1.57
2019-03-15T14:07:13.149Z,2.12
2019-03-15T14:08:19.740Z,1.77
2019-03-15T14:09:23.737Z,2.20
2019-03-15T14:10:28.974Z,2.00
2019-03-15T14:11:33.108Z,2.12
2019-03-15T14:12:37.188Z,2.17
2019-03-15T14:13:49.468Z,2.37
2019-03-15T14:14:48.757Z,2.35
2019-03-15T14:15:53.104Z,2.87
2019-03-15T14:16:57.256Z,3.10